createdAt,value
2019-03-12T00:01:48.188Z,65.67
2019-03-12T00:04:14.542Z,65.65
2019-03-12T00:06:42.711Z,65.47
2019-03-12T00:09:09.049Z,65.26
2019-03-12T00:11:35.353Z,65.35
2019-03-12T00:14:03.513Z,65.17
2019-03-12T00:16:29.879Z,64.93
2019-03-12T00:18:56.119Z,64.97
2019-03-12T00:21:22.496Z,65.08
2019-03-12T00:23:48.642Z,64.99
2019-03-12T00:26:15.032Z,64.94
2019-03-12T00:28:41.298Z,64.99
2019-03-12T00:31:07.652Z,64.99
2019-03-12T00:33:33.929Z,65.11
2019-03-12T00:36:00.295Z,65.15
2019-03-12T00:38:26.609Z,65.29
2019-03-12T00:40:52.863Z,65.10
2019-03-12T00:43:21.940Z,65.10
2019-03-12T00:45:48.232Z,66.00
2019-03-12T00:48:14.669Z,66.64
2019-03-12T00:50:40.950Z,66.83
2019-03-12T00:53:07.254Z,67.54
2019-03-12T00:55:33.459Z,67.51
2019-03-12T00:58:01.515Z,67.29
2019-03-12T01:00:27.804Z,67.39
2019-03-12T01:02:54.025Z,67.57
2019-03-12T01:05:20.338Z,67.54
2019-03-12T01:07:46.644Z,67.60
2019-03-12T01:10:16.184Z,67.91
2019-03-12T01:12:42.495Z,68.15
2019-03-12T01:15:11.161Z,68.18
2019-03-12T01:17:37.416Z,68.27
2019-03-12T01:20:06.918Z,68.31
2019-03-12T01:22:33.187Z,68.46
2019-03-12T01:24:59.362Z,68.47
2019-03-12T01:27:25.570Z,68.43
2019-03-12T01:29:51.844Z,69.04
2019-03-12T01:32:18.146Z,69.01
2019-03-12T01:34:44.504Z,68.71
2019-03-12T01:37:10.796Z,68.07
2019-03-12T01:39:37.136Z,67.39
2019-03-12T01:42:03.454Z,67.32
2019-03-12T01:44:29.755Z,67.77
2019-03-12T01:46:59.007Z,67.87
2019-03-12T01:49:25.134Z,67.60
2019-03-12T01:51:51.489Z,67.63
2019-03-12T01:54:17.805Z,67.46
2019-03-12T01:56:44.142Z,68.75
2019-03-12T01:59:10.452Z,69.25
2019-03-12T02:01:36.763Z,69.46
2019-03-12T02:04:04.470Z,69.45
2019-03-12T02:06:30.724Z,69.09
2019-03-12T02:08:56.977Z,68.92
2019-03-12T02:11:23.278Z,68.68
2019-03-12T02:13:49.491Z,68.40
2019-03-12T02:16:17.453Z,68.31
2019-03-12T02:18:43.804Z,68.07
2019-03-12T02:21:10.018Z,67.91
2019-03-12T02:23:36.293Z,68.02
2019-03-12T02:26:02.669Z,68.65
2019-03-12T02:28:28.889Z,69.02
2019-03-12T02:30:55.204Z,69.74
2019-03-12T02:33:24.480Z,69.71
2019-03-12T02:35:50.598Z,70.13
2019-03-12T02:38:17.018Z,70.35
2019-03-12T02:40:43.314Z,69.95
2019-03-12T02:43:09.564Z,70.22
2019-03-12T02:45:35.866Z,70.24
2019-03-12T02:48:02.208Z,70.01
2019-03-12T02:50:28.397Z,69.67
2019-03-12T02:52:54.665Z,71.23
2019-03-12T02:55:20.940Z,70.93
2019-03-12T02:57:47.134Z,70.49
2019-03-12T03:00:18.931Z,70.23
2019-03-12T03:02:45.185Z,69.91
2019-03-12T03:05:11.238Z,69.76
2019-03-12T03:07:39.349Z,69.81
2019-03-12T03:10:07.235Z,69.76
2019-03-12T03:12:33.550Z,69.88
2019-03-12T03:15:03.961Z,69.76
2019-03-12T03:17:33.196Z,69.53
2019-03-12T03:19:59.320Z,69.59
2019-03-12T03:22:25.667Z,70.37
2019-03-12T03:24:51.932Z,70.30
2019-03-12T03:27:18.170Z,70.48
2019-03-12T03:29:44.468Z,70.31
2019-03-12T03:32:15.461Z,70.25
2019-03-12T03:34:41.639Z,70.43
2019-03-12T03:37:07.902Z,70.53
2019-03-12T03:39:34.158Z,70.65
2019-03-12T03:42:00.440Z,70.55
2019-03-12T03:44:26.720Z,70.72
2019-03-12T03:46:52.934Z,70.56
2019-03-12T03:49:19.279Z,70.34
2019-03-12T03:51:45.673Z,70.89
2019-03-12T03:54:11.963Z,71.39
2019-03-12T03:56:38.275Z,72.21
2019-03-12T03:59:04.616Z,73.72
2019-03-12T04:01:30.915Z,73.81
2019-03-12T04:03:57.090Z,74.32
2019-03-12T04:06:23.333Z,73.90
2019-03-12T04:08:49.659Z,73.37
2019-03-12T04:11:15.943Z,73.76
2019-03-12T04:13:42.251Z,74.16
2019-03-12T04:16:10.338Z,74.67
2019-03-12T04:18:36.635Z,75.00
2019-03-12T04:21:02.946Z,75.75
2019-03-12T04:23:29.142Z,75.42
2019-03-12T04:25:55.525Z,75.53
2019-03-12T04:28:21.815Z,75.05
2019-03-12T04:30:48.109Z,74.31
2019-03-12T04:33:42.167Z,74.17
2019-03-12T04:36:11.545Z,73.54
2019-03-12T04:38:41.841Z,73.26
2019-03-12T04:41:08.153Z,73.34
2019-03-12T04:43:34.352Z,72.95
2019-03-12T04:46:00.714Z,72.73
2019-03-12T04:48:26.892Z,72.44
2019-03-12T04:50:53.259Z,71.79
2019-03-12T04:53:19.545Z,71.68
2019-03-12T04:55:45.850Z,70.99
2019-03-12T04:58:12.151Z,70.48
2019-03-12T05:00:40.274Z,70.75
2019-03-12T05:03:06.578Z,70.34
2019-03-12T05:05:32.872Z,70.06
2019-03-12T05:07:59.151Z,70.06
2019-03-12T05:10:25.361Z,69.74
2019-03-12T05:12:53.502Z,69.88
2019-03-12T05:15:19.792Z,69.75
2019-03-12T05:17:46.119Z,69.75
2019-03-12T05:20:14.416Z,69.66
2019-03-12T05:22:40.748Z,69.70
2019-03-12T05:25:13.204Z,70.53
2019-03-12T05:27:39.550Z,70.63
2019-03-12T05:30:16.780Z,71.55
2019-03-12T05:32:43.090Z,71.68
2019-03-12T05:35:09.422Z,72.05
2019-03-12T05:37:35.818Z,72.17
2019-03-12T05:40:03.529Z,71.95
2019-03-12T05:42:29.876Z,72.52
2019-03-12T05:44:56.167Z,72.81
2019-03-12T05:47:22.480Z,73.18
2019-03-12T05:49:48.772Z,72.86
2019-03-12T05:52:15.097Z,72.88
2019-03-12T05:54:41.393Z,72.63
2019-03-12T05:57:07.701Z,72.33
2019-03-12T05:59:34.041Z,72.39
2019-03-12T06:02:00.348Z,72.42
2019-03-12T06:04:26.621Z,71.92
2019-03-12T06:06:52.906Z,70.60
2019-03-12T06:09:29.700Z,70.28
2019-03-12T06:11:47.471Z,69.94
2019-03-12T06:14:15.062Z,69.37
2019-03-12T06:16:41.307Z,69.24
2019-03-12T06:19:07.544Z,69.06
2019-03-12T06:21:33.810Z,68.55
2019-03-12T06:24:07.204Z,68.49
2019-03-12T06:26:33.461Z,67.99
2019-03-12T06:28:59.712Z,67.50
2019-03-12T06:31:27.711Z,66.35
2019-03-12T06:33:55.652Z,65.49
2019-03-12T06:36:24.700Z,65.34
2019-03-12T06:38:58.380Z,65.67
2019-03-12T06:41:32.294Z,66.26
2019-03-12T06:44:21.921Z,66.09
2019-03-12T06:47:05.430Z,65.50
2019-03-12T06:49:33.550Z,65.35
2019-03-12T06:52:01.611Z,65.24
2019-03-12T06:54:44.669Z,65.18
2019-03-12T06:59:55.792Z,64.65
2019-03-12T07:02:23.893Z,64.62
2019-03-12T07:05:29.846Z,64.10
2019-03-12T07:10:52.553Z,63.31
2019-03-12T07:13:20.765Z,63.88
2019-03-12T07:15:53.781Z,63.85
2019-03-12T07:21:50.529Z,62.73
2019-03-12T07:24:30.478Z,62.22
2019-03-12T07:28:00.236Z,62.22
2019-03-12T07:30:13.463Z,60.86
2019-03-12T07:32:44.178Z,61.11
2019-03-12T07:35:14.808Z,61.37
2019-03-12T07:37:42.933Z,61.39
2019-03-12T07:40:27.601Z,61.54
2019-03-12T07:43:01.872Z,61.22
2019-03-12T07:45:42.219Z,60.20
2019-03-12T07:48:25.383Z,60.22
2019-03-12T07:50:56.520Z,58.93
2019-03-12T07:53:27.528Z,57.12
2019-03-12T07:56:00.573Z,57.57
2019-03-12T07:58:36.074Z,57.03
2019-03-12T08:01:10.706Z,57.63
2019-03-12T08:03:47.939Z,58.18
2019-03-12T08:06:18.682Z,58.00
2019-03-12T08:08:55.502Z,57.15
2019-03-12T08:11:43.260Z,57.36
2019-03-12T08:14:29.650Z,57.90
2019-03-12T08:17:03.584Z,58.50
2019-03-12T08:19:37.936Z,58.37
2019-03-12T08:22:06.039Z,57.27
2019-03-12T08:24:36.842Z,56.20
2019-03-12T08:27:04.999Z,54.93
2019-03-12T08:29:32.933Z,55.05
2019-03-12T08:32:00.898Z,54.40
2019-03-12T08:34:37.734Z,55.09
2019-03-12T08:37:07.312Z,55.74
2019-03-12T08:39:53.734Z,55.94
2019-03-12T08:42:33.877Z,56.65
2019-03-12T08:45:02.420Z,57.06
2019-03-12T08:47:39.142Z,56.68
2019-03-12T08:50:18.496Z,56.06
2019-03-12T08:52:55.625Z,57.26
2019-03-12T08:55:26.291Z,57.44
2019-03-12T08:57:55.489Z,58.05
2019-03-12T09:00:35.615Z,57.33
2019-03-12T09:03:20.407Z,57.68
2019-03-12T09:05:57.255Z,56.71
2019-03-12T09:08:25.311Z,55.86
2019-03-12T09:11:05.301Z,55.43
2019-03-12T09:13:35.886Z,56.87
2019-03-12T09:16:03.906Z,56.74
2019-03-12T09:18:45.068Z,55.65
2019-03-12T09:21:13.209Z,56.20
2019-03-12T09:23:46.884Z,56.31
2019-03-12T09:26:16.252Z,56.20
2019-03-12T09:28:49.813Z,56.43
2019-03-12T09:31:32.808Z,55.34
2019-03-12T09:34:00.777Z,55.63
2019-03-12T09:36:31.678Z,55.97
2019-03-12T09:39:16.247Z,54.75
2019-03-12T09:41:59.502Z,55.15
2019-03-12T09:44:30.560Z,57.03
2019-03-12T09:46:58.658Z,57.08
2019-03-12T09:49:38.842Z,58.01
2019-03-12T09:52:09.458Z,57.66
2019-03-12T09:54:37.549Z,57.31
2019-03-12T09:57:05.568Z,57.81
2019-03-12T09:59:33.737Z,56.89
2019-03-12T10:02:06.667Z,55.84
2019-03-12T10:04:34.658Z,55.67
2019-03-12T10:07:20.622Z,55.75
2019-03-12T10:10:03.613Z,56.39
2019-03-12T10:12:48.718Z,56.15
2019-03-12T10:15:33.983Z,55.63
2019-03-12T10:18:02.816Z,55.73
2019-03-12T10:20:48.781Z,54.10
2019-03-12T10:23:19.727Z,55.01
2019-03-12T10:26:04.497Z,54.58
2019-03-12T10:28:35.407Z,54.92
2019-03-12T10:31:03.250Z,52.48
2019-03-12T10:33:31.300Z,53.18
2019-03-12T10:35:59.486Z,52.59
2019-03-12T10:39:08.167Z,52.39
2019-03-12T10:41:38.756Z,52.28
2019-03-12T10:44:06.671Z,52.46
2019-03-12T10:46:37.271Z,53.82
2019-03-12T10:49:04.062Z,53.54
2019-03-12T10:51:30.416Z,53.27
2019-03-12T10:53:56.689Z,53.38
2019-03-12T10:56:22.719Z,51.68
2019-03-12T10:58:48.901Z,50.89
2019-03-12T11:01:15.024Z,52.21
2019-03-12T11:03:41.302Z,51.24
2019-03-12T11:06:07.567Z,52.40
2019-03-12T11:08:37.571Z,52.02
2019-03-12T11:11:04.129Z,51.94
2019-03-12T11:13:30.354Z,52.41
2019-03-12T11:15:56.635Z,52.70
2019-03-12T11:18:22.917Z,51.71
2019-03-12T11:20:49.223Z,51.49
2019-03-12T11:23:15.555Z,51.56
2019-03-12T11:25:49.347Z,50.84
2019-03-12T11:28:15.534Z,50.95
2019-03-12T11:30:41.716Z,51.25
2019-03-12T11:33:10.450Z,51.68
2019-03-12T11:35:39.097Z,50.38
2019-03-12T11:38:04.675Z,50.58
2019-03-12T11:40:32.542Z,50.93
2019-03-12T11:42:59.087Z,50.79
2019-03-12T11:45:35.850Z,50.92
2019-03-12T11:47:53.565Z,50.65
2019-03-12T11:50:24.909Z,51.24
2019-03-12T11:52:55.735Z,49.91
2019-03-12T11:55:19.540Z,50.58
2019-03-12T11:57:45.930Z,50.60
2019-03-12T12:00:24.667Z,51.64
2019-03-12T12:02:59.924Z,51.78
2019-03-12T12:05:19.075Z,52.50
2019-03-12T12:07:45.307Z,50.99
2019-03-12T12:10:14.065Z,51.25
2019-03-12T12:12:40.430Z,50.60
2019-03-12T12:15:09.852Z,50.42
2019-03-12T12:17:36.038Z,49.54
2019-03-12T12:20:03.429Z,50.13
2019-03-12T12:22:31.144Z,50.06
2019-03-12T12:24:57.483Z,50.61
2019-03-12T12:27:23.781Z,50.70
2019-03-12T12:29:50.058Z,50.81
2019-03-12T12:32:16.301Z,50.76
2019-03-12T12:34:42.570Z,51.57
2019-03-12T12:37:08.795Z,51.40
2019-03-12T12:39:35.048Z,50.33
2019-03-12T12:42:01.332Z,51.14
2019-03-12T12:44:27.614Z,49.66
2019-03-12T12:46:54.015Z,49.88
2019-03-12T12:49:20.424Z,50.51
2019-03-12T12:51:46.737Z,50.56
2019-03-12T12:54:13.048Z,50.24
2019-03-12T12:56:39.373Z,49.69
2019-03-12T12:59:05.681Z,49.93
2019-03-12T13:01:31.829Z,50.20
2019-03-12T13:03:58.174Z,50.08
2019-03-12T13:06:24.442Z,50.83
2019-03-12T13:08:50.784Z,50.81
2019-03-12T13:11:17.095Z,50.48
2019-03-12T13:13:43.483Z,49.80
2019-03-12T13:16:09.675Z,50.70
2019-03-12T13:18:38.240Z,50.31
2019-03-12T13:21:04.501Z,49.96
2019-03-12T13:23:30.596Z,49.15
2019-03-12T13:25:56.883Z,50.25
2019-03-12T13:28:23.195Z,50.08
2019-03-12T13:30:49.451Z,49.22
2019-03-12T13:33:15.779Z,50.02
2019-03-12T13:35:42.132Z,50.81
2019-03-12T13:38:08.297Z,51.31
2019-03-12T13:40:34.591Z,51.50
2019-03-12T13:43:00.902Z,51.80
2019-03-12T13:45:30.036Z,52.35
2019-03-12T13:47:56.629Z,52.65
2019-03-12T13:50:23.200Z,52.03
2019-03-12T13:52:49.440Z,52.45
2019-03-12T13:55:16.571Z,52.26
2019-03-12T13:57:43.118Z,52.69
2019-03-12T14:00:40.147Z,52.67
2019-03-12T14:03:06.438Z,53.75
2019-03-12T14:05:32.803Z,54.28
2019-03-12T14:08:29.048Z,54.09
2019-03-12T14:26:04.781Z,53.83
2019-03-12T14:28:30.932Z,55.26
2019-03-12T14:30:57.266Z,55.18
2019-03-12T14:33:23.536Z,56.36
2019-03-12T14:35:51.704Z,56.64
2019-03-12T14:38:18.081Z,56.54
2019-03-12T14:40:44.288Z,56.95
2019-03-12T14:43:10.638Z,56.37
2019-03-12T14:45:38.532Z,55.81
2019-03-12T14:48:04.692Z,54.87
2019-03-12T14:50:32.179Z,54.92
2019-03-12T14:53:21.726Z,54.82
2019-03-12T14:55:44.228Z,54.25
2019-03-12T14:58:10.440Z,54.38
2019-03-12T15:00:36.727Z,54.18
2019-03-12T15:03:03.049Z,53.83
2019-03-12T15:05:29.293Z,52.70
2019-03-12T15:07:55.661Z,52.89
2019-03-12T15:10:21.954Z,52.59
2019-03-12T15:12:48.227Z,53.67
2019-03-12T15:15:14.543Z,53.10
2019-03-12T15:17:40.734Z,52.75
2019-03-12T15:20:12.033Z,52.65
2019-03-12T15:22:38.286Z,52.21
2019-03-12T15:25:12.075Z,52.22
2019-03-12T15:27:38.232Z,51.58
2019-03-12T15:30:23.450Z,51.27
2019-03-12T15:32:51.277Z,51.88
2019-03-12T15:35:17.560Z,51.40
2019-03-12T15:37:43.903Z,51.12
2019-03-12T15:40:11.364Z,51.07
2019-03-12T15:42:37.728Z,51.11
2019-03-12T15:45:09.693Z,51.21
2019-03-12T15:47:38.806Z,50.93
2019-03-12T15:50:12.952Z,51.08
2019-03-12T15:52:35.410Z,51.30
2019-03-12T15:55:01.681Z,51.42
2019-03-12T15:57:27.776Z,51.24
2019-03-12T15:59:54.065Z,51.49
2019-03-12T16:02:20.252Z,51.35
2019-03-12T16:04:48.355Z,51.69
2019-03-12T16:07:14.603Z,51.93
2019-03-12T16:09:44.311Z,52.09
2019-03-12T16:15:26.939Z,52.21
2019-03-12T16:18:30.963Z,52.19
2019-03-12T16:20:36.679Z,52.13
2019-03-12T16:23:04.881Z,52.61
2019-03-12T16:25:31.147Z,52.83
2019-03-12T16:27:57.461Z,53.01
2019-03-12T16:30:23.749Z,53.42
2019-03-12T16:32:50.189Z,53.48
2019-03-12T16:35:16.429Z,53.86
2019-03-12T16:37:42.707Z,53.89
2019-03-12T16:43:03.236Z,54.11
2019-03-12T16:45:29.634Z,54.16
2019-03-12T16:47:55.920Z,54.32
2019-03-12T16:50:24.399Z,54.50
2019-03-12T16:52:50.723Z,54.57
2019-03-12T16:55:17.731Z,54.91
2019-03-12T16:57:44.015Z,55.15
2019-03-12T17:00:11.576Z,55.46
2019-03-12T17:02:37.852Z,55.60
2019-03-12T17:05:05.799Z,55.69
2019-03-12T17:07:36.492Z,55.75
2019-03-12T17:10:05.302Z,55.96
2019-03-12T17:12:31.610Z,56.21
2019-03-12T17:14:57.986Z,56.47
2019-03-12T17:17:24.173Z,56.66
2019-03-12T17:19:50.400Z,56.78
2019-03-12T17:22:17.231Z,56.87
2019-03-12T17:24:43.573Z,57.11
2019-03-12T17:27:09.750Z,57.77
2019-03-12T17:29:36.215Z,57.97
2019-03-12T17:32:02.156Z,58.11
2019-03-12T17:34:35.850Z,58.10
2019-03-12T17:36:55.975Z,58.36
2019-03-12T17:39:22.152Z,58.38
2019-03-12T17:41:48.075Z,58.59
2019-03-12T17:44:14.316Z,58.41
2019-03-12T17:46:40.472Z,58.27
2019-03-12T17:49:06.767Z,58.38
2019-03-12T17:51:32.945Z,58.52
2019-03-12T17:53:59.183Z,58.58
2019-03-12T17:56:25.681Z,58.64
2019-03-12T17:58:53.695Z,58.72
2019-03-12T18:01:29.339Z,58.90
2019-03-12T18:03:50.007Z,59.04
2019-03-12T18:06:16.742Z,59.19
2019-03-12T18:08:42.946Z,59.53
2019-03-12T18:11:09.088Z,59.50
2019-03-12T18:13:35.239Z,59.52
2019-03-12T18:16:01.176Z,59.55
2019-03-12T18:18:27.211Z,59.59
2019-03-12T18:20:53.501Z,59.73
2019-03-12T18:23:19.518Z,59.82
2019-03-12T18:25:47.480Z,60.31
2019-03-12T18:28:13.716Z,60.83
2019-03-12T18:30:39.902Z,60.76
2019-03-12T18:33:06.153Z,60.61
2019-03-12T18:35:32.492Z,60.61
2019-03-12T18:37:58.601Z,60.64
2019-03-12T18:40:26.049Z,60.68
2019-03-12T18:42:53.775Z,60.67
2019-03-12T18:45:42.739Z,60.83
2019-03-12T18:48:09.016Z,60.91
2019-03-12T18:50:36.169Z,60.98
2019-03-12T18:53:02.242Z,61.26
2019-03-12T18:55:31.978Z,61.58
2019-03-12T18:57:58.065Z,61.77
2019-03-12T19:00:24.223Z,61.61
2019-03-12T19:02:50.353Z,61.41
2019-03-12T19:05:16.725Z,61.46
2019-03-12T19:07:45.411Z,61.53
2019-03-12T19:10:13.181Z,61.57
2019-03-12T19:12:55.737Z,61.59
2019-03-12T19:15:20.042Z,61.87
2019-03-12T19:20:58.187Z,61.93
2019-03-12T19:23:24.721Z,61.91
2019-03-12T19:25:52.836Z,62.29
2019-03-12T19:28:19.259Z,62.59
2019-03-12T19:30:45.793Z,62.94
2019-03-12T19:33:17.260Z,62.91
2019-03-12T19:35:44.650Z,62.90
2019-03-12T19:38:10.760Z,62.95
2019-03-12T19:40:41.806Z,62.83
2019-03-12T19:43:07.931Z,62.89
2019-03-12T19:45:33.883Z,62.91
2019-03-12T19:47:59.814Z,62.95
2019-03-12T19:50:25.855Z,63.11
2019-03-12T19:52:51.906Z,63.27
2019-03-12T19:55:33.168Z,63.31
2019-03-12T19:57:59.306Z,63.51
2019-03-12T20:00:26.352Z,63.48
2019-03-12T20:02:52.871Z,63.53
2019-03-12T20:05:18.918Z,63.75
2019-03-12T20:07:45.037Z,63.92
2019-03-12T20:10:31.854Z,63.96
2019-03-12T20:13:21.519Z,63.89
2019-03-12T20:16:12.719Z,63.80
2019-03-12T20:18:45.285Z,63.94
2019-03-12T20:21:36.502Z,64.09
2019-03-12T20:24:15.182Z,64.18
2019-03-12T20:27:00.153Z,64.14
2019-03-12T20:29:29.921Z,64.24
2019-03-12T20:32:33.539Z,64.35
2019-03-12T20:35:30.153Z,64.45
2019-03-12T20:38:25.989Z,64.74
2019-03-12T20:41:15.408Z,64.69
2019-03-12T20:44:05.076Z,64.75
2019-03-12T20:46:57.832Z,64.98
2019-03-12T20:49:54.952Z,65.43
2019-03-12T20:52:41.612Z,65.76
2019-03-12T20:55:37.051Z,65.88
2019-03-12T20:58:35.803Z,66.48
2019-03-12T21:01:27.954Z,66.51
2019-03-12T21:04:17.106Z,66.10
2019-03-12T21:07:02.519Z,65.90
2019-03-12T21:09:48.543Z,65.62
2019-03-12T21:12:18.346Z,65.57
2019-03-12T21:14:50.879Z,65.67
2019-03-12T21:17:35.693Z,65.98
2019-03-12T21:20:28.603Z,66.16
2019-03-12T21:23:32.323Z,65.83
2019-03-12T21:26:23.642Z,65.77
2019-03-12T21:28:56.122Z,66.27
2019-03-12T21:31:22.167Z,66.38
2019-03-12T21:33:52.653Z,66.22
2019-03-12T21:36:18.695Z,66.47
2019-03-12T21:38:44.757Z,67.46
2019-03-12T21:41:10.816Z,66.99
2019-03-12T21:43:36.900Z,66.94
2019-03-12T21:46:03.182Z,66.91
2019-03-12T21:48:29.125Z,66.88
2019-03-12T21:50:55.274Z,67.13
2019-03-12T21:53:21.347Z,67.18
2019-03-12T21:55:47.438Z,67.13
2019-03-12T21:58:17.851Z,67.12
2019-03-12T22:00:43.987Z,67.23
2019-03-12T22:03:10.007Z,66.92
2019-03-12T22:05:36.174Z,66.66
2019-03-12T22:08:02.137Z,66.67
2019-03-12T22:10:28.211Z,67.09
2019-03-12T22:12:54.280Z,67.23
2019-03-12T22:15:20.323Z,66.88
2019-03-12T22:17:46.272Z,66.79
2019-03-12T22:20:13.222Z,66.87
2019-03-12T22:22:41.148Z,66.98
2019-03-12T22:25:11.440Z,66.71
2019-03-12T22:27:37.343Z,66.44
2019-03-12T22:30:07.279Z,66.37
2019-03-12T22:32:33.200Z,66.20
2019-03-12T22:34:59.230Z,66.25
2019-03-12T22:37:25.292Z,66.34
2019-03-12T22:39:51.231Z,66.54
2019-03-12T22:42:17.193Z,66.44
2019-03-12T22:44:43.232Z,66.40
2019-03-12T22:47:09.154Z,66.49
2019-03-12T22:49:35.088Z,66.75
2019-03-12T22:52:01.145Z,67.15
2019-03-12T22:54:27.159Z,67.95
2019-03-12T22:56:54.762Z,67.51
2019-03-12T22:59:20.718Z,67.18
2019-03-12T23:01:46.769Z,66.76
2019-03-12T23:04:12.964Z,66.85
2019-03-12T23:06:39.023Z,66.75
2019-03-12T23:09:05.272Z,66.74
2019-03-12T23:11:35.940Z,66.94
2019-03-12T23:13:59.354Z,67.07
2019-03-12T23:16:25.309Z,67.24
2019-03-12T23:18:53.673Z,67.44
2019-03-12T23:21:19.675Z,68.09
2019-03-12T23:23:45.765Z,68.12
2019-03-12T23:26:13.133Z,67.77
2019-03-12T23:28:39.118Z,67.58
2019-03-12T23:31:05.099Z,67.74
2019-03-12T23:33:31.179Z,67.29
2019-03-12T23:35:57.133Z,67.30
2019-03-12T23:38:23.117Z,67.39
2019-03-12T23:40:49.177Z,68.01
2019-03-12T23:43:15.241Z,67.59
2019-03-12T23:45:41.327Z,67.35
2019-03-12T23:48:07.398Z,66.90
2019-03-12T23:50:33.369Z,66.80
2019-03-12T23:52:59.327Z,66.93
2019-03-12T23:55:25.642Z,67.22
2019-03-12T23:57:51.642Z,66.92
